createdAt,value
2022-07-30T00:01:16.727Z,100910.84
2022-07-30T00:03:43.634Z,100902.19
2022-07-30T00:06:10.241Z,100906.69
2022-07-30T00:08:36.801Z,100911.44
2022-07-30T00:11:03.322Z,100881.06
2022-07-30T00:13:30.084Z,100881.34
2022-07-30T00:15:56.623Z,100908.75
2022-07-30T00:18:23.168Z,100909.84
2022-07-30T00:20:49.727Z,100901.09
2022-07-30T00:23:17.791Z,100903.19
2022-07-30T00:25:44.498Z,100902.81
2022-07-30T00:28:11.083Z,100867.09
2022-07-30T00:30:38.780Z,100898.56
2022-07-30T00:33:05.546Z,100832.72
2022-07-30T00:35:34.851Z,100861.88
2022-07-30T00:38:01.410Z,100849.69
2022-07-30T00:40:28.037Z,100849.94
2022-07-30T00:42:55.052Z,100853.97
2022-07-30T00:45:21.669Z,100888.31
2022-07-30T00:47:48.345Z,100891.28
2022-07-30T00:50:16.374Z,100890.56
2022-07-30T00:52:43.337Z,100857.78
2022-07-30T00:55:13.335Z,100856.09
2022-07-30T00:57:40.521Z,100860.84
2022-07-30T01:00:11.663Z,100890.66
2022-07-30T01:02:38.383Z,100863.72
2022-07-30T01:05:05.915Z,100840.16
2022-07-30T01:07:32.712Z,100862.88
2022-07-30T01:09:59.327Z,100890.19
2022-07-30T01:12:27.173Z,100893.72
2022-07-30T01:14:56.132Z,100890.72
2022-07-30T01:17:22.878Z,100884.34
2022-07-30T01:19:56.045Z,100769.53
2022-07-30T01:22:30.503Z,100885.63
2022-07-30T01:25:09.927Z,100890.84
2022-07-30T01:27:43.565Z,100887.31
2022-07-30T01:30:10.856Z,100835.53
2022-07-30T01:32:40.737Z,100892.44
2022-07-30T01:35:09.818Z,100886.56
2022-07-30T01:37:38.486Z,100822.38
2022-07-30T01:40:06.280Z,100883.81
2022-07-30T01:42:33.732Z,100888.00
2022-07-30T01:45:00.982Z,100856.47
2022-07-30T01:47:28.250Z,100891.28
2022-07-30T01:49:55.338Z,100884.97
2022-07-30T01:52:23.523Z,100869.56
2022-07-30T01:54:51.779Z,100888.66
2022-07-30T01:57:19.888Z,100878.97
2022-07-30T01:59:49.825Z,100842.59
2022-07-30T02:02:17.951Z,100884.50
2022-07-30T02:04:45.042Z,100875.78
2022-07-30T02:07:18.756Z,100870.22
2022-07-30T02:09:55.207Z,100886.25
2022-07-30T02:12:29.170Z,100891.59
2022-07-30T02:15:14.317Z,100891.91
2022-07-30T02:17:57.469Z,100856.72
2022-07-30T02:20:28.338Z,100897.47
2022-07-30T02:23:00.608Z,100892.88
2022-07-30T02:25:27.764Z,100877.91
2022-07-30T02:27:57.349Z,100891.44
2022-07-30T02:30:27.988Z,100883.84
2022-07-30T02:32:58.371Z,100865.59
2022-07-30T02:35:26.763Z,100892.44
2022-07-30T02:37:54.358Z,100898.22
2022-07-30T02:40:22.691Z,100862.56
2022-07-30T02:42:50.500Z,100896.88
2022-07-30T02:45:18.208Z,100870.34
2022-07-30T02:47:46.584Z,100902.56
2022-07-30T02:50:13.607Z,100863.25
2022-07-30T02:52:40.551Z,100898.50
2022-07-30T02:55:09.274Z,100891.50
2022-07-30T02:57:36.314Z,100906.28
2022-07-30T03:00:11.898Z,100908.25
2022-07-30T03:02:39.398Z,100880.00
2022-07-30T03:05:07.486Z,100878.84
2022-07-30T03:07:34.692Z,100895.19
2022-07-30T03:10:01.593Z,100881.94
2022-07-30T03:12:32.992Z,100864.91
2022-07-30T03:14:59.585Z,100906.59
2022-07-30T03:17:28.857Z,100904.06
2022-07-30T03:19:56.253Z,100888.06
2022-07-30T03:22:27.206Z,100868.88
2022-07-30T03:24:57.793Z,100914.41
2022-07-30T03:27:25.091Z,100914.84
2022-07-30T03:29:54.048Z,100913.13
2022-07-30T03:32:25.983Z,100914.69
2022-07-30T03:34:54.191Z,100914.72
2022-07-30T03:37:21.494Z,100917.63
2022-07-30T03:39:48.534Z,100914.22
2022-07-30T03:42:15.729Z,100927.09
2022-07-30T03:44:45.684Z,100899.88
2022-07-30T03:47:13.169Z,100877.94
2022-07-30T03:49:40.078Z,100891.78
2022-07-30T03:52:07.249Z,100919.28
2022-07-30T03:54:34.207Z,100922.91
2022-07-30T03:57:02.685Z,100876.72
2022-07-30T03:59:29.626Z,100881.34
2022-07-30T04:02:05.969Z,100871.25
2022-07-30T04:04:34.177Z,100925.94
2022-07-30T04:07:01.098Z,100878.47
2022-07-30T04:09:28.133Z,100922.13
2022-07-30T04:11:54.755Z,100921.13
2022-07-30T04:14:21.386Z,100896.38
2022-07-30T04:17:12.284Z,100918.84
2022-07-30T04:19:44.015Z,100947.78
2022-07-30T04:22:12.222Z,100943.09
2022-07-30T04:24:39.341Z,100922.91
2022-07-30T04:27:06.282Z,100952.16
2022-07-30T04:29:32.912Z,100940.06
2022-07-30T04:31:59.635Z,100964.13
2022-07-30T04:34:26.320Z,100939.06
2022-07-30T04:36:52.832Z,100966.47
2022-07-30T04:39:19.617Z,100961.47
2022-07-30T04:41:48.641Z,100957.72
2022-07-30T04:44:20.429Z,100972.69
2022-07-30T04:46:48.002Z,100971.19
2022-07-30T04:49:16.685Z,100973.31
2022-07-30T04:51:43.951Z,100934.69
2022-07-30T04:54:15.564Z,100958.75
2022-07-30T04:56:52.474Z,100980.28
2022-07-30T04:59:21.951Z,100966.97
2022-07-30T05:01:52.350Z,100943.91
2022-07-30T05:04:19.727Z,100958.75
2022-07-30T05:06:46.470Z,100978.66
2022-07-30T05:09:15.107Z,100993.56
2022-07-30T05:11:41.804Z,100981.13
2022-07-30T05:14:08.348Z,100992.88
2022-07-30T05:16:35.724Z,100947.00
2022-07-30T05:19:02.290Z,100998.78
2022-07-30T05:21:34.409Z,100963.78
2022-07-30T05:24:01.018Z,100974.41
2022-07-30T05:26:28.024Z,101007.19
2022-07-30T05:28:55.120Z,100956.06
2022-07-30T05:31:23.795Z,101001.47
2022-07-30T05:33:52.122Z,101022.81
2022-07-30T05:36:21.856Z,101003.66
2022-07-30T05:38:48.564Z,101027.72
2022-07-30T05:41:25.127Z,101032.91
2022-07-30T05:43:59.117Z,101025.31
2022-07-30T05:46:26.076Z,101035.81
2022-07-30T05:48:52.964Z,101013.53
2022-07-30T05:51:20.934Z,101014.63
2022-07-30T05:53:47.887Z,101018.63
2022-07-30T05:56:14.500Z,101013.59
2022-07-30T05:58:41.124Z,101016.28
2022-07-30T06:01:07.810Z,101021.47
2022-07-30T06:03:34.937Z,100999.28
2022-07-30T06:06:04.606Z,101019.81
2022-07-30T06:08:31.247Z,100955.00
2022-07-30T06:10:57.818Z,101022.88
2022-07-30T06:13:24.652Z,100988.34
2022-07-30T06:15:51.514Z,101011.56
2022-07-30T06:18:18.088Z,101001.16
2022-07-30T06:20:45.263Z,100993.06
2022-07-30T06:23:12.265Z,101025.66
2022-07-30T06:25:39.344Z,101017.13
2022-07-30T06:28:34.832Z,101022.75
2022-07-30T06:30:54.244Z,101031.44
2022-07-30T06:33:20.829Z,101016.25
2022-07-30T06:35:48.894Z,100996.16
2022-07-30T06:38:15.493Z,101015.41
2022-07-30T06:40:42.089Z,101004.75
2022-07-30T06:43:08.705Z,101009.13
2022-07-30T06:45:35.362Z,101031.44
2022-07-30T06:48:01.954Z,101028.38
2022-07-30T06:50:28.633Z,101024.31
2022-07-30T06:52:55.209Z,101004.91
2022-07-30T06:55:21.804Z,101025.53
2022-07-30T06:57:48.412Z,101025.97
2022-07-30T07:00:15.562Z,101030.00
2022-07-30T07:02:42.802Z,101027.69
2022-07-30T07:05:10.012Z,101033.72
2022-07-30T07:07:42.186Z,101043.44
2022-07-30T07:10:10.624Z,101042.75
2022-07-30T07:12:37.305Z,101040.22
2022-07-30T07:15:04.321Z,101048.84
2022-07-30T07:17:31.282Z,101046.78
2022-07-30T07:20:01.736Z,101037.94
2022-07-30T07:22:28.984Z,101034.28
2022-07-30T07:24:55.979Z,100987.41
2022-07-30T07:27:22.642Z,101045.78
2022-07-30T07:30:01.660Z,101017.53
2022-07-30T07:32:34.262Z,101053.31
2022-07-30T07:35:01.292Z,101047.00
2022-07-30T07:37:27.915Z,101048.47
2022-07-30T07:39:54.483Z,101012.88
2022-07-30T07:42:21.041Z,101043.41
2022-07-30T07:44:47.740Z,101031.75
2022-07-30T07:47:14.509Z,101053.44
2022-07-30T07:49:41.051Z,101009.66
2022-07-30T07:52:07.636Z,101014.59
2022-07-30T07:54:34.168Z,101042.09
2022-07-30T07:57:03.177Z,101038.38
2022-07-30T07:59:39.646Z,101013.31
2022-07-30T08:02:08.375Z,101061.59
2022-07-30T08:04:35.507Z,101062.50
2022-07-30T08:07:02.755Z,101050.50
2022-07-30T08:09:43.878Z,101031.13
2022-07-30T08:12:12.691Z,101052.44
2022-07-30T08:14:39.835Z,101067.47
2022-07-30T08:17:07.122Z,101068.47
2022-07-30T08:19:34.216Z,101070.38
2022-07-30T08:22:00.876Z,101066.50
2022-07-30T08:24:27.407Z,101077.19
2022-07-30T08:26:53.999Z,101050.16
2022-07-30T08:29:20.536Z,101057.22
2022-07-30T08:31:47.127Z,101061.78
2022-07-30T08:34:13.896Z,101075.53
2022-07-30T08:36:40.741Z,101031.50
2022-07-30T08:39:07.422Z,101058.22
2022-07-30T08:41:36.128Z,101047.56
2022-07-30T08:44:03.175Z,101064.19
2022-07-30T08:46:31.729Z,101050.34
2022-07-30T08:49:00.600Z,101081.53
2022-07-30T08:51:37.605Z,101075.84
2022-07-30T08:54:04.701Z,101060.06
2022-07-30T08:56:32.516Z,101075.84
2022-07-30T08:59:00.844Z,101069.03
2022-07-30T09:01:27.670Z,101049.28
2022-07-30T09:03:54.446Z,101087.22
2022-07-30T09:06:21.104Z,101073.28
2022-07-30T09:08:47.814Z,101080.34
2022-07-30T09:11:14.642Z,101093.75
2022-07-30T09:13:42.413Z,101077.41
2022-07-30T09:16:22.685Z,101088.25
2022-07-30T09:18:49.941Z,101070.31
2022-07-30T09:21:29.039Z,101061.72
2022-07-30T09:23:59.578Z,101088.34
2022-07-30T09:26:26.487Z,101081.22
2022-07-30T09:28:53.188Z,101086.94
2022-07-30T09:31:20.854Z,101084.31
2022-07-30T09:33:47.952Z,101060.56
2022-07-30T09:36:16.797Z,101086.09
2022-07-30T09:38:48.531Z,101079.00
2022-07-30T09:41:37.590Z,101079.78
2022-07-30T09:44:04.360Z,101074.41
2022-07-30T09:46:47.090Z,101076.94
2022-07-30T09:49:18.680Z,101048.69
2022-07-30T09:51:55.755Z,101070.41
2022-07-30T09:54:51.225Z,101055.53
2022-07-30T09:57:25.706Z,101055.28
2022-07-30T09:59:56.573Z,101063.44
2022-07-30T10:02:33.907Z,101064.50
2022-07-30T10:05:15.300Z,101034.94
2022-07-30T10:07:48.458Z,101068.88
2022-07-30T10:10:19.951Z,101070.06
2022-07-30T10:12:47.981Z,101037.72
2022-07-30T10:15:16.017Z,101058.94
2022-07-30T10:17:42.837Z,101019.06
2022-07-30T10:20:09.744Z,101051.69
2022-07-30T10:22:38.976Z,101047.97
2022-07-30T10:25:06.515Z,101044.72
2022-07-30T10:27:33.898Z,101031.66
2022-07-30T10:30:03.619Z,101060.53
2022-07-30T10:32:31.794Z,101057.19
2022-07-30T10:34:59.768Z,101060.34
2022-07-30T10:37:27.490Z,101054.50
2022-07-30T10:39:57.302Z,101057.09
2022-07-30T10:42:44.745Z,101054.31
2022-07-30T10:45:23.893Z,101061.53
2022-07-30T10:47:51.868Z,101058.13
2022-07-30T10:50:22.384Z,101049.97
2022-07-30T10:52:56.766Z,101052.22
2022-07-30T10:55:37.003Z,101022.75
2022-07-30T10:58:15.553Z,101047.94
2022-07-30T11:00:51.715Z,101049.97
2022-07-30T11:03:40.703Z,101041.09
2022-07-30T11:06:24.084Z,101048.09
2022-07-30T11:08:51.536Z,101044.97
2022-07-30T11:11:21.067Z,101046.25
2022-07-30T11:14:07.672Z,101050.78
2022-07-30T11:16:34.803Z,101033.03
2022-07-30T11:19:55.275Z,101041.31
2022-07-30T11:22:27.226Z,101044.63
2022-07-30T11:24:54.168Z,101045.66
2022-07-30T11:27:42.078Z,101036.03
2022-07-30T11:30:18.830Z,101041.44
2022-07-30T11:32:45.975Z,101038.53
2022-07-30T11:35:35.290Z,101032.00
2022-07-30T11:38:19.688Z,101002.81
2022-07-30T11:40:49.096Z,101034.78
2022-07-30T11:43:35.650Z,101035.25
2022-07-30T11:46:18.110Z,101019.31
2022-07-30T11:48:55.641Z,101037.25
2022-07-30T11:51:22.343Z,101007.56
2022-07-30T11:54:02.186Z,101023.97
2022-07-30T11:56:28.809Z,100985.94
2022-07-30T11:59:08.222Z,100985.09
2022-07-30T12:01:35.778Z,101022.25
2022-07-30T12:04:06.807Z,101024.56
2022-07-30T12:06:33.750Z,101022.31
2022-07-30T12:09:00.436Z,101018.97
2022-07-30T12:11:34.337Z,101024.28
2022-07-30T12:14:02.265Z,101029.34
2022-07-30T12:16:30.914Z,101028.44
2022-07-30T12:19:09.693Z,101025.38
2022-07-30T12:21:36.589Z,101023.38
2022-07-30T12:24:13.641Z,101022.53
2022-07-30T12:26:40.541Z,100992.16
2022-07-30T12:29:13.680Z,101025.06
2022-07-30T12:31:40.922Z,101028.28
2022-07-30T12:34:27.322Z,101012.94
2022-07-30T12:36:54.772Z,101019.56
2022-07-30T12:39:23.615Z,101018.63
2022-07-30T12:41:52.275Z,101022.03
2022-07-30T12:44:42.331Z,101021.94
2022-07-30T12:47:21.987Z,101015.53
2022-07-30T12:49:50.031Z,101017.00
2022-07-30T12:52:31.209Z,101029.09
2022-07-30T12:55:12.455Z,101018.09
2022-07-30T12:58:08.615Z,101020.13
2022-07-30T13:00:53.171Z,101024.09
2022-07-30T13:03:27.893Z,101031.94
2022-07-30T13:05:56.247Z,101023.00
2022-07-30T13:08:53.976Z,101023.66
2022-07-30T13:11:23.079Z,101021.00
2022-07-30T13:13:50.649Z,100984.41
2022-07-30T13:16:18.966Z,101015.91
2022-07-30T13:18:46.109Z,101018.38
2022-07-30T13:21:13.475Z,101007.63
2022-07-30T13:23:41.491Z,101013.78
2022-07-30T13:26:08.873Z,100992.22
2022-07-30T13:28:35.859Z,101011.84
2022-07-30T13:31:02.874Z,100982.84
2022-07-30T13:33:29.585Z,101004.00
2022-07-30T13:35:56.536Z,100997.34
2022-07-30T13:38:23.484Z,100990.56
2022-07-30T13:40:50.379Z,101020.66
2022-07-30T13:43:17.034Z,101018.25
2022-07-30T13:45:44.005Z,100974.75
2022-07-30T13:48:10.953Z,101006.34
2022-07-30T13:50:37.556Z,101016.09
2022-07-30T13:53:05.353Z,100995.41
2022-07-30T13:55:33.032Z,101008.38
2022-07-30T13:57:59.911Z,100991.41
2022-07-30T14:00:32.258Z,100996.03
2022-07-30T14:03:03.863Z,101010.75
2022-07-30T14:05:30.976Z,101008.19
2022-07-30T14:07:57.504Z,101009.72
2022-07-30T14:10:24.497Z,100984.69
2022-07-30T14:12:54.925Z,101003.88
2022-07-30T14:15:25.035Z,100986.66
2022-07-30T14:17:56.484Z,100973.81
2022-07-30T14:20:24.415Z,100988.56
2022-07-30T14:22:56.236Z,100998.75
2022-07-30T14:25:23.071Z,101001.81
2022-07-30T14:27:49.758Z,101003.78
2022-07-30T14:30:16.339Z,101003.94
2022-07-30T14:32:43.089Z,101004.06
2022-07-30T14:35:10.425Z,101002.69
2022-07-30T14:37:38.204Z,101006.63
2022-07-30T14:40:06.614Z,101004.50
2022-07-30T14:42:33.237Z,101001.09
2022-07-30T14:44:59.765Z,100985.69
2022-07-30T14:47:26.310Z,100961.63
2022-07-30T14:49:52.927Z,100998.41
2022-07-30T14:52:19.607Z,100999.47
2022-07-30T14:54:46.231Z,100995.63
2022-07-30T14:57:12.847Z,101000.41
2022-07-30T14:59:39.455Z,100992.22
2022-07-30T15:02:06.659Z,100986.19
2022-07-30T15:04:37.460Z,100992.31
2022-07-30T15:07:04.158Z,101005.94
2022-07-30T15:09:34.096Z,100952.97
2022-07-30T15:12:23.604Z,100994.06
2022-07-30T15:14:49.797Z,100998.53
2022-07-30T15:17:16.347Z,100995.00
2022-07-30T15:19:50.058Z,100999.75
2022-07-30T15:22:17.022Z,100997.00
2022-07-30T15:24:43.576Z,100993.78
2022-07-30T15:27:10.140Z,100987.84
2022-07-30T15:29:36.706Z,100992.41
2022-07-30T15:32:03.727Z,101000.91
2022-07-30T15:34:34.201Z,100962.69
2022-07-30T15:37:01.784Z,100978.84
2022-07-30T15:39:29.497Z,100956.03
2022-07-30T15:41:57.139Z,100984.03
2022-07-30T15:44:24.398Z,100942.50
2022-07-30T15:46:51.027Z,100981.31
2022-07-30T15:49:17.620Z,100981.78
2022-07-30T15:51:50.415Z,100974.66
2022-07-30T15:54:22.795Z,100965.19
2022-07-30T15:56:53.912Z,100973.16
2022-07-30T15:59:22.041Z,100987.69
2022-07-30T16:01:49.213Z,100983.19
2022-07-30T16:04:19.140Z,100987.19
2022-07-30T16:06:49.574Z,100994.59
2022-07-30T16:09:16.580Z,100983.81
2022-07-30T16:11:43.409Z,100946.28
2022-07-30T16:14:10.454Z,100993.00
2022-07-30T16:16:37.000Z,100981.19
2022-07-30T16:19:03.780Z,100977.38
2022-07-30T16:21:30.504Z,100957.28
2022-07-30T16:23:57.062Z,100986.47
2022-07-30T16:26:23.623Z,100968.22
2022-07-30T16:28:50.610Z,100982.63
2022-07-30T16:31:17.314Z,100992.59
2022-07-30T16:33:44.187Z,100980.31
2022-07-30T16:36:11.275Z,100969.94
2022-07-30T16:38:37.862Z,100972.91
2022-07-30T16:41:04.468Z,100988.81
2022-07-30T16:43:32.012Z,100961.50
2022-07-30T16:45:59.451Z,100980.81
2022-07-30T16:48:26.651Z,100992.88
2022-07-30T16:50:53.291Z,100967.75
2022-07-30T16:53:19.892Z,100990.47
2022-07-30T16:55:47.022Z,100984.53
2022-07-30T16:58:13.614Z,100958.31
2022-07-30T17:00:40.439Z,100986.22
2022-07-30T17:03:07.319Z,100986.75
2022-07-30T17:05:33.900Z,100959.69
2022-07-30T17:08:00.400Z,100987.50
2022-07-30T17:10:27.255Z,100991.03
2022-07-30T17:12:56.930Z,100989.19
2022-07-30T17:15:31.994Z,100993.72
2022-07-30T17:18:02.879Z,100955.81
2022-07-30T17:20:31.423Z,100994.91
2022-07-30T17:22:58.177Z,100982.69
2022-07-30T17:25:27.770Z,100985.47
2022-07-30T17:27:58.585Z,100987.88
2022-07-30T17:30:26.609Z,100968.69
2022-07-30T17:32:53.562Z,100957.47
2022-07-30T17:35:20.448Z,100990.59
2022-07-30T17:37:46.970Z,100991.78
2022-07-30T17:40:29.239Z,100995.94
2022-07-30T17:43:03.705Z,100994.06
2022-07-30T17:45:32.007Z,100981.91
2022-07-30T17:47:58.788Z,100989.53
2022-07-30T17:50:25.339Z,100984.53
2022-07-30T17:52:52.295Z,100966.03
2022-07-30T17:55:19.033Z,101014.69
2022-07-30T17:57:45.600Z,101007.19
2022-07-30T18:00:12.682Z,100982.88
2022-07-30T18:02:39.209Z,101004.13
2022-07-30T18:05:06.003Z,100971.31
2022-07-30T18:07:32.503Z,101006.53
2022-07-30T18:09:59.082Z,101004.13
2022-07-30T18:12:25.648Z,101007.19
2022-07-30T18:14:52.477Z,101010.75
2022-07-30T18:17:19.079Z,101011.63
2022-07-30T18:19:45.644Z,101010.31
2022-07-30T18:22:14.660Z,100974.84
2022-07-30T18:24:43.017Z,101022.28
2022-07-30T18:27:12.126Z,101015.06
2022-07-30T18:29:38.774Z,101019.53
2022-07-30T18:32:06.212Z,101027.00
2022-07-30T18:34:33.330Z,100984.34
2022-07-30T18:36:59.901Z,101027.34
2022-07-30T18:39:26.504Z,101010.25
2022-07-30T18:41:53.098Z,101029.22
2022-07-30T18:44:19.729Z,100995.09
2022-07-30T18:46:46.327Z,101026.09
2022-07-30T18:49:34.920Z,100970.03
2022-07-30T18:52:01.611Z,101009.38
2022-07-30T18:54:29.571Z,101026.44
2022-07-30T18:56:56.365Z,101030.19
2022-07-30T18:59:22.992Z,101012.03
2022-07-30T19:01:49.526Z,101039.03
2022-07-30T19:04:16.163Z,101038.59
2022-07-30T19:06:42.834Z,101006.50
2022-07-30T19:09:17.280Z,101045.41
2022-07-30T19:11:45.887Z,101042.06
2022-07-30T19:14:13.983Z,100945.84
2022-07-30T19:16:41.879Z,101056.09
2022-07-30T19:19:08.867Z,101055.50
2022-07-30T19:21:35.838Z,101055.72
2022-07-30T19:24:02.548Z,101060.00
2022-07-30T19:26:29.144Z,101051.94
2022-07-30T19:28:55.895Z,101026.56
2022-07-30T19:31:22.484Z,101058.13
2022-07-30T19:33:49.513Z,101045.53
2022-07-30T19:36:20.575Z,101069.50
2022-07-30T19:38:48.747Z,101075.47
2022-07-30T19:41:15.314Z,101069.19
2022-07-30T19:43:42.164Z,101064.59
2022-07-30T19:46:08.817Z,101047.41
2022-07-30T19:48:37.401Z,101069.56
2022-07-30T19:51:04.765Z,101066.63
2022-07-30T19:53:34.469Z,101074.38
2022-07-30T19:56:04.407Z,101079.63
2022-07-30T19:58:36.635Z,101065.47
2022-07-30T20:01:03.910Z,101030.59
2022-07-30T20:03:35.547Z,101054.63
2022-07-30T20:06:02.237Z,101065.28
2022-07-30T20:08:29.623Z,101085.56
2022-07-30T20:10:57.673Z,101093.78
2022-07-30T20:13:45.035Z,101092.34
2022-07-30T20:16:12.436Z,101089.91
2022-07-30T20:18:39.911Z,101074.84
2022-07-30T20:21:11.316Z,101086.53
2022-07-30T20:23:41.258Z,101100.53
2022-07-30T20:26:12.649Z,101095.56
2022-07-30T20:28:41.029Z,101103.06
2022-07-30T20:31:08.475Z,101097.47
2022-07-30T20:33:36.191Z,101066.53
2022-07-30T20:36:05.033Z,101099.72
2022-07-30T20:38:33.757Z,101095.75
2022-07-30T20:41:02.286Z,101096.78
2022-07-30T20:43:29.192Z,101096.59
2022-07-30T20:45:55.803Z,101077.13
2022-07-30T20:48:25.646Z,101108.47
2022-07-30T20:50:52.640Z,101085.94
2022-07-30T20:53:19.868Z,101089.06
2022-07-30T20:55:47.426Z,101110.16
2022-07-30T20:58:16.724Z,101099.50
2022-07-30T21:00:49.558Z,101108.69
2022-07-30T21:03:21.737Z,101113.94
2022-07-30T21:05:48.836Z,101120.63
2022-07-30T21:08:18.923Z,101106.25
2022-07-30T21:10:46.797Z,101122.78
2022-07-30T21:13:13.784Z,101091.59
2022-07-30T21:15:45.462Z,101121.75
2022-07-30T21:18:27.382Z,101094.78
2022-07-30T21:20:53.880Z,101102.75
2022-07-30T21:23:23.901Z,101119.69
2022-07-30T21:26:00.669Z,101119.69
2022-07-30T21:28:29.165Z,101104.16
2022-07-30T21:30:57.338Z,101120.50
2022-07-30T21:33:24.337Z,101123.88
2022-07-30T21:35:57.653Z,101109.59
2022-07-30T21:38:26.381Z,101116.56
2022-07-30T21:40:53.081Z,101107.53
2022-07-30T21:43:29.477Z,101109.19
2022-07-30T21:45:59.781Z,101101.47
2022-07-30T21:48:30.407Z,101077.88
2022-07-30T21:50:56.987Z,101091.19
2022-07-30T21:53:29.652Z,101092.47
2022-07-30T21:56:10.896Z,101101.16
2022-07-30T21:58:39.095Z,101112.84
2022-07-30T22:01:16.815Z,101089.72
2022-07-30T22:04:03.634Z,101086.38
2022-07-30T22:06:37.983Z,101083.41
2022-07-30T22:09:19.170Z,101073.59
2022-07-30T22:11:54.014Z,101071.75
2022-07-30T22:14:20.572Z,101018.03
2022-07-30T22:16:47.168Z,101075.91
2022-07-30T22:19:14.996Z,101083.91
2022-07-30T22:21:46.614Z,101112.66
2022-07-30T22:24:29.893Z,101063.13
2022-07-30T22:27:09.773Z,101080.47
2022-07-30T22:29:41.725Z,101100.13
2022-07-30T22:32:09.577Z,101066.16
2022-07-30T22:34:36.152Z,100990.13
2022-07-30T22:37:03.303Z,101094.97
2022-07-30T22:39:32.311Z,101096.88
2022-07-30T22:42:16.445Z,101080.34
2022-07-30T22:44:46.249Z,101086.69
2022-07-30T22:47:21.854Z,101100.63
2022-07-30T22:50:01.961Z,101078.34
2022-07-30T22:52:28.642Z,101083.13
2022-07-30T22:54:55.582Z,101051.16
2022-07-30T22:57:22.869Z,101084.19
2022-07-30T22:59:57.912Z,101053.66
2022-07-30T23:02:25.275Z,101094.63
2022-07-30T23:04:54.538Z,101069.09
2022-07-30T23:07:22.878Z,101083.28
2022-07-30T23:09:51.962Z,101089.38
2022-07-30T23:12:20.170Z,101066.94
2022-07-30T23:14:47.372Z,101061.19
2022-07-30T23:17:14.035Z,101031.53
2022-07-30T23:19:40.523Z,101087.81
2022-07-30T23:22:10.228Z,101074.69
2022-07-30T23:24:37.102Z,101080.31
2022-07-30T23:27:04.317Z,101079.94
2022-07-30T23:29:31.429Z,101058.13
2022-07-30T23:31:57.950Z,101035.72
2022-07-30T23:34:24.529Z,101059.75
2022-07-30T23:36:51.086Z,101057.53
2022-07-30T23:39:19.565Z,101049.75
2022-07-30T23:41:46.731Z,101054.03
2022-07-30T23:44:13.303Z,101072.28
2022-07-30T23:46:40.746Z,101059.09
2022-07-30T23:49:07.736Z,101064.34
2022-07-30T23:51:34.360Z,101059.34
2022-07-30T23:54:01.457Z,101011.09
2022-07-30T23:56:27.991Z,101065.56
2022-07-30T23:58:54.729Z,101028.94
